Time;durP1;ratioP1;P1;durP2;ratioP2;P2;SDS_P1;SDS_P2;PMS_P1;PMS_P2;Temp;Humidity;BMP_temperature;BMP_pressure;BME280_temperature;BME280_humidity;BME280_pressure;Samples;Min_cycle;Max_cycle;Signal;HPM_P1;HPM_P2
2021/06/22 00:01:05;;;;;;;6.57;2.35;;;18.30;99.90;;;;;;5003327;28;20079;-71
2021/06/22 00:03:32;;;;;;;3.97;1.25;;;18.30;99.90;;;;;;4990504;28;20105;-71
2021/06/22 00:05:57;;;;;;;5.65;1.60;;;18.30;99.90;;;;;;4991669;28;20569;-71
2021/06/22 00:08:23;;;;;;;8.73;1.73;;;18.20;99.90;;;;;;5004489;28;20130;-71
2021/06/22 00:10:49;;;;;;;3.30;0.93;;;18.20;99.90;;;;;;5004630;28;20172;-71
2021/06/22 00:13:15;;;;;;;5.60;1.25;;;18.30;99.90;;;;;;4990947;28;20919;-71
2021/06/22 00:15:41;;;;;;;8.10;1.23;;;18.20;99.90;;;;;;5003180;28;20083;-71
2021/06/22 00:18:07;;;;;;;4.25;0.93;;;18.20;99.90;;;;;;5004543;28;20118;-71
2021/06/22 00:20:33;;;;;;;5.68;1.63;;;18.30;99.90;;;;;;4990161;28;20593;-71
2021/06/22 00:22:59;;;;;;;5.40;1.40;;;18.30;99.90;;;;;;4990085;28;20193;-71
2021/06/22 00:25:26;;;;;;;1.42;1.05;;;18.20;99.90;;;;;;4990434;28;20626;-71
2021/06/22 00:27:52;;;;;;;4.30;1.02;;;18.40;99.90;;;;;;5004816;28;20098;-71
2021/06/22 00:30:19;;;;;;;4.13;1.10;;;18.20;99.90;;;;;;4992952;28;20084;-71
2021/06/22 00:32:45;;;;;;;4.82;1.55;;;18.20;99.90;;;;;;4996106;28;20074;-71
2021/06/22 00:35:12;;;;;;;4.32;1.98;;;18.20;99.90;;;;;;5005962;28;20086;-71
2021/06/22 00:37:39;;;;;;;3.53;1.40;;;18.10;99.90;;;;;;5003211;28;20181;-71
2021/06/22 00:40:05;;;;;;;4.38;1.42;;;18.20;99.90;;;;;;5007262;28;20658;-71
2021/06/22 00:42:31;;;;;;;5.15;1.00;;;18.10;99.90;;;;;;4997587;28;20087;-71
2021/06/22 00:44:58;;;;;;;1.42;0.90;;;18.10;99.90;;;;;;4993552;28;20090;-71
2021/06/22 00:47:26;;;;;;;3.78;1.23;;;18.10;99.90;;;;;;4989225;28;20099;-71
2021/06/22 00:49:53;;;;;;;4.18;1.13;;;17.90;99.90;;;;;;4991115;28;20145;-71
2021/06/22 00:52:21;;;;;;;4.18;1.20;;;18.00;99.90;;;;;;4990238;28;20087;-71
2021/06/22 00:54:46;;;;;;;4.63;1.02;;;18.00;99.90;;;;;;4990203;28;20079;-71
2021/06/22 00:57:12;;;;;;;2.75;1.20;;;18.10;99.90;;;;;;5004227;28;20091;-71
2021/06/22 00:59:38;;;;;;;8.57;1.63;;;18.10;99.90;;;;;;4989275;28;20094;-71
2021/06/22 01:02:04;;;;;;;4.30;1.20;;;18.10;99.90;;;;;;4990629;28;20086;-71
2021/06/22 01:04:31;;;;;;;4.32;1.10;;;18.10;99.90;;;;;;4992662;28;20089;-71
2021/06/22 01:06:57;;;;;;;7.45;1.30;;;18.00;99.90;;;;;;5005388;28;20100;-71
2021/06/22 01:09:24;;;;;;;2.20;0.88;;;18.00;99.90;;;;;;4996011;28;20497;-71
2021/06/22 01:11:50;;;;;;;2.78;0.98;;;17.90;99.90;;;;;;4990806;28;20106;-71
2021/06/22 01:14:16;;;;;;;2.80;1.00;;;17.90;99.90;;;;;;4992179;28;20079;-71
2021/06/22 01:16:42;;;;;;;3.30;1.30;;;17.90;99.90;;;;;;4991001;28;20090;-71
2021/06/22 01:19:09;;;;;;;4.07;2.45;;;18.00;99.90;;;;;;4999563;28;20494;-71
2021/06/22 01:21:36;;;;;;;2.85;1.48;;;18.00;99.90;;;;;;4989118;28;20071;-71
2021/06/22 01:24:08;;;;;;;3.75;1.02;;;18.00;99.90;;;;;;5005809;28;20082;-71
2021/06/22 01:26:35;;;;;;;4.65;1.13;;;18.10;99.90;;;;;;4988972;28;20103;-71
2021/06/22 01:29:02;;;;;;;4.88;1.20;;;18.10;99.90;;;;;;5002201;28;20087;-71
2021/06/22 01:31:28;;;;;;;1.27;1.00;;;18.00;99.90;;;;;;5003784;28;20577;-71
2021/06/22 01:33:54;;;;;;;4.07;0.90;;;18.00;99.90;;;;;;4987071;28;20078;-70
2021/06/22 01:36:20;;;;;;;4.18;1.35;;;18.00;99.90;;;;;;5027884;28;20094;-71
2021/06/22 01:38:46;;;;;;;5.22;1.23;;;18.00;99.90;;;;;;4990118;28;20563;-71
2021/06/22 01:41:11;;;;;;;2.70;0.80;;;17.90;99.90;;;;;;4991825;28;20086;-71
2021/06/22 01:43:37;;;;;;;3.80;1.10;;;17.90;99.90;;;;;;5004089;28;20102;-71
2021/06/22 01:46:04;;;;;;;2.88;1.27;;;17.90;99.90;;;;;;4991402;28;20082;-71
2021/06/22 01:48:30;;;;;;;5.18;1.50;;;18.00;99.90;;;;;;4995848;28;20653;-71
2021/06/22 01:50:56;;;;;;;4.82;1.42;;;17.90;99.90;;;;;;4991031;28;20088;-71
2021/06/22 01:53:22;;;;;;;2.88;1.33;;;17.90;99.90;;;;;;4988648;28;20717;-71
2021/06/22 01:55:49;;;;;;;2.92;1.17;;;17.80;99.90;;;;;;4988628;28;20085;-71
2021/06/22 01:58:16;;;;;;;3.67;1.08;;;17.70;99.90;;;;;;4988877;28;20676;-71
2021/06/22 02:00:44;;;;;;;2.47;1.30;;;17.70;99.90;;;;;;5002770;28;20526;-71
2021/06/22 02:03:16;;;;;;;4.05;1.70;;;17.70;99.90;;;;;;4987981;28;20114;-71
2021/06/22 02:05:41;;;;;;;2.53;1.63;;;17.60;99.90;;;;;;4989765;28;20109;-71
2021/06/22 02:08:07;;;;;;;3.67;0.80;;;17.60;99.90;;;;;;4989240;28;20554;-71
2021/06/22 02:10:33;;;;;;;2.90;1.20;;;17.60;99.90;;;;;;5004449;28;20078;-71
2021/06/22 02:12:59;;;;;;;2.63;0.95;;;17.60;99.90;;;;;;4991895;28;20078;-71
2021/06/22 02:15:24;;;;;;;2.65;1.30;;;17.60;99.90;;;;;;4992230;28;20089;-71
2021/06/22 02:17:50;;;;;;;2.60;1.10;;;17.50;99.90;;;;;;4995633;28;20196;-71
2021/06/22 02:20:16;;;;;;;3.45;1.23;;;17.60;99.90;;;;;;4998049;28;20611;-71
2021/06/22 02:22:42;;;;;;;3.08;1.27;;;17.30;99.90;;;;;;5006275;28;20432;-71
2021/06/22 02:25:09;;;;;;;4.40;1.58;;;17.10;99.90;;;;;;4991793;28;20074;-71
2021/06/22 02:27:35;;;;;;;3.58;1.50;;;17.20;99.90;;;;;;4991841;28;20087;-71
2021/06/22 02:30:06;;;;;;;3.20;1.45;;;17.30;99.90;;;;;;4995230;28;20286;-71
2021/06/22 02:32:32;;;;;;;4.63;1.00;;;17.40;99.90;;;;;;4994442;28;20153;-71
2021/06/22 02:34:57;;;;;;;4.15;1.25;;;17.40;99.90;;;;;;4995778;28;20103;-71
2021/06/22 02:37:23;;;;;;;2.60;1.00;;;17.40;99.90;;;;;;5003678;28;20480;-71
2021/06/22 02:39:49;;;;;;;3.38;1.48;;;17.40;99.90;;;;;;4992363;28;20519;-71
2021/06/22 02:42:15;;;;;;;5.20;1.65;;;17.50;99.90;;;;;;4991963;28;20086;-71
2021/06/22 02:44:41;;;;;;;2.40;1.13;;;17.40;99.90;;;;;;5006977;28;20081;-71
2021/06/22 02:47:06;;;;;;;5.13;1.27;;;17.50;99.90;;;;;;5003784;28;20213;-71
2021/06/22 02:49:32;;;;;;;3.50;1.63;;;17.40;99.90;;;;;;4994948;28;20079;-71
2021/06/22 02:51:59;;;;;;;2.40;1.23;;;17.40;99.90;;;;;;5006287;28;20094;-71
2021/06/22 02:54:25;;;;;;;2.35;1.20;;;17.30;99.90;;;;;;4993460;28;20550;-71
2021/06/22 02:56:51;;;;;;;4.95;1.50;;;17.40;99.90;;;;;;4991509;28;20086;-71
2021/06/22 02:59:16;;;;;;;3.92;1.15;;;17.40;99.90;;;;;;4994606;28;20166;-71
2021/06/22 03:01:42;;;;;;;3.53;1.35;;;17.40;99.90;;;;;;4992952;28;20810;-71
2021/06/22 03:04:08;;;;;;;3.97;1.10;;;17.40;99.90;;;;;;5005628;28;20120;-71
2021/06/22 03:06:33;;;;;;;5.50;1.63;;;17.40;99.90;;;;;;4993770;28;20090;-71
2021/06/22 03:08:59;;;;;;;1.45;0.90;;;17.40;99.90;;;;;;4992569;28;20129;-71
2021/06/22 03:11:25;;;;;;;3.33;1.17;;;17.50;99.90;;;;;;5005646;28;20103;-71
2021/06/22 03:13:50;;;;;;;5.38;1.75;;;17.40;99.90;;;;;;4991936;28;20071;-71
2021/06/22 03:16:16;;;;;;;3.28;1.65;;;17.50;99.90;;;;;;4990601;28;20149;-71
2021/06/22 03:18:41;;;;;;;1.88;0.90;;;17.40;99.90;;;;;;5007161;28;20667;-71
2021/06/22 03:21:07;;;;;;;3.53;1.15;;;17.40;99.90;;;;;;4992368;28;20090;-71
2021/06/22 03:23:32;;;;;;;6.15;1.40;;;17.50;99.90;;;;;;4990768;28;20101;-71
2021/06/22 03:25:58;;;;;;;3.97;1.20;;;17.50;99.90;;;;;;4990886;28;20075;-71
2021/06/22 03:28:24;;;;;;;4.75;1.13;;;17.60;99.90;;;;;;4991334;28;20112;-71
2021/06/22 03:30:49;;;;;;;3.75;1.20;;;17.60;99.90;;;;;;5000628;28;20109;-71
2021/06/22 03:33:17;;;;;;;2.97;1.17;;;17.60;99.90;;;;;;4994652;28;20107;-71
2021/06/22 03:35:42;;;;;;;3.22;1.13;;;17.60;99.90;;;;;;4994136;28;20078;-71
2021/06/22 03:38:08;;;;;;;4.50;1.73;;;17.60;99.90;;;;;;4995195;28;20530;-71
2021/06/22 03:40:33;;;;;;;6.95;1.50;;;17.50;99.90;;;;;;4991324;28;20686;-71
2021/06/22 03:43:00;;;;;;;2.97;1.15;;;17.50;99.90;;;;;;5004115;28;20071;-71
2021/06/22 03:45:27;;;;;;;3.05;1.15;;;17.60;99.90;;;;;;4991593;28;20077;-71
2021/06/22 03:47:54;;;;;;;1.73;1.33;;;17.70;99.90;;;;;;5004106;28;20186;-71
2021/06/22 03:50:20;;;;;;;4.90;1.75;;;17.70;99.90;;;;;;4990934;28;20161;-71
2021/06/22 03:52:45;;;;;;;4.80;2.33;;;17.60;99.90;;;;;;5005474;28;20165;-71
2021/06/22 03:55:27;;;;;;;3.67;1.20;;;17.70;99.90;;;;;;4991753;28;20136;-71
2021/06/22 03:57:54;;;;;;;5.50;1.38;;;17.70;99.90;;;;;;4990948;28;20431;-71
2021/06/22 04:00:20;;;;;;;2.78;1.48;;;17.80;99.90;;;;;;4990013;28;20080;-71
2021/06/22 04:02:47;;;;;;;3.40;1.15;;;17.70;99.90;;;;;;4990378;28;20517;-71
2021/06/22 04:05:13;;;;;;;4.60;1.20;;;17.70;99.90;;;;;;5005258;28;20075;-71
2021/06/22 04:07:39;;;;;;;2.65;1.08;;;17.70;99.90;;;;;;5003680;28;20122;-71
2021/06/22 04:10:06;;;;;;;1.58;1.17;;;17.70;99.90;;;;;;4990449;28;20474;-71
2021/06/22 04:12:32;;;;;;;4.30;1.10;;;17.70;99.90;;;;;;5003878;28;20103;-71
2021/06/22 04:14:57;;;;;;;2.58;1.10;;;17.80;99.90;;;;;;5005459;28;20075;-71
2021/06/22 04:17:23;;;;;;;4.22;0.93;;;17.80;99.90;;;;;;4990452;28;20102;-71
2021/06/22 04:19:49;;;;;;;2.20;1.00;;;17.90;99.90;;;;;;4986716;28;20103;-71
2021/06/22 04:22:14;;;;;;;3.63;1.35;;;18.00;99.90;;;;;;5002629;28;20086;-71
2021/06/22 04:24:40;;;;;;;2.20;0.75;;;18.00;99.90;;;;;;4990301;28;20075;-71
2021/06/22 04:27:06;;;;;;;4.45;1.13;;;18.10;99.90;;;;;;4992404;28;20105;-71
2021/06/22 04:29:31;;;;;;;3.88;1.02;;;18.20;99.90;;;;;;5001651;28;20546;-72
2021/06/22 04:31:57;;;;;;;2.83;2.05;;;18.20;99.90;;;;;;5005847;28;20094;-72
2021/06/22 04:34:23;;;;;;;1.75;1.10;;;18.20;99.90;;;;;;4998350;28;20449;-71
2021/06/22 04:36:49;;;;;;;3.58;1.10;;;18.30;99.90;;;;;;4995452;28;20094;-71
2021/06/22 04:39:14;;;;;;;2.22;1.15;;;18.30;99.90;;;;;;5001835;28;20083;-71
2021/06/22 04:41:40;;;;;;;2.97;1.20;;;18.40;99.90;;;;;;4991597;28;20102;-71
2021/06/22 04:44:06;;;;;;;4.18;1.33;;;18.40;99.90;;;;;;4990296;28;20082;-71
2021/06/22 04:46:31;;;;;;;2.30;1.65;;;18.40;99.90;;;;;;5003291;28;20165;-71
2021/06/22 04:48:57;;;;;;;2.83;1.30;;;18.40;99.90;;;;;;4995731;28;20618;-71
2021/06/22 04:51:23;;;;;;;4.75;1.20;;;18.30;99.90;;;;;;4990436;28;20094;-71
2021/06/22 04:53:48;;;;;;;4.47;1.38;;;18.30;99.90;;;;;;5002437;28;20075;-71
2021/06/22 04:56:14;;;;;;;4.25;1.52;;;18.30;99.90;;;;;;4989284;28;20490;-71
2021/06/22 04:58:40;;;;;;;4.07;1.30;;;18.40;99.90;;;;;;4999953;28;20090;-71
2021/06/22 05:01:07;;;;;;;4.15;1.38;;;18.40;99.90;;;;;;4997010;28;20079;-71
2021/06/22 05:03:34;;;;;;;5.45;1.40;;;18.40;99.90;;;;;;5003451;28;20538;-72
2021/06/22 05:06:00;;;;;;;6.97;1.45;;;18.40;99.90;;;;;;4996521;28;20082;-72
2021/06/22 05:08:26;;;;;;;4.97;1.25;;;18.50;99.90;;;;;;4995463;28;20117;-72
2021/06/22 05:10:51;;;;;;;3.55;1.25;;;18.50;99.90;;;;;;5004426;28;20098;-72
2021/06/22 05:13:17;;;;;;;4.40;1.35;;;18.50;99.90;;;;;;5001786;28;20082;-73
2021/06/22 05:15:42;;;;;;;2.30;1.50;;;18.70;99.90;;;;;;5002789;28;20089;-73
2021/06/22 05:18:08;;;;;;;3.00;1.52;;;18.80;99.90;;;;;;4999749;28;20098;-71
2021/06/22 05:20:34;;;;;;;7.72;2.10;;;18.80;99.90;;;;;;4989114;28;20079;-71
2021/06/22 05:22:59;;;;;;;4.30;1.50;;;18.70;99.90;;;;;;5003147;28;20084;-71
2021/06/22 05:25:25;;;;;;;2.67;1.50;;;18.60;99.90;;;;;;5000540;28;20078;-72
2021/06/22 05:27:51;;;;;;;4.45;2.03;;;18.60;99.90;;;;;;4989210;28;20165;-71
2021/06/22 05:30:17;;;;;;;4.78;1.60;;;18.70;99.90;;;;;;5006861;28;20078;-72
2021/06/22 05:32:42;;;;;;;5.13;1.33;;;18.70;99.90;;;;;;5004698;28;20094;-72
2021/06/22 05:35:09;;;;;;;3.67;1.77;;;18.70;99.90;;;;;;4992325;28;20172;-71
2021/06/22 05:37:34;;;;;;;3.28;1.27;;;18.70;99.90;;;;;;4990740;28;20341;-71
2021/06/22 05:40:00;;;;;;;2.78;1.15;;;18.70;99.90;;;;;;5007434;28;20695;-71
2021/06/22 05:42:26;;;;;;;5.47;1.77;;;18.60;99.90;;;;;;4989482;28;20561;-71
2021/06/22 05:44:51;;;;;;;6.22;1.77;;;18.70;99.90;;;;;;4990538;28;20086;-71
2021/06/22 05:47:17;;;;;;;6.07;1.80;;;18.80;99.90;;;;;;4994000;28;20114;-71
2021/06/22 05:49:43;;;;;;;2.03;1.10;;;18.80;99.90;;;;;;4994989;28;20125;-71
2021/06/22 05:52:08;;;;;;;2.85;1.65;;;18.80;99.90;;;;;;4992932;28;20146;-71
2021/06/22 05:54:36;;;;;;;2.22;1.10;;;18.80;99.90;;;;;;5000184;28;20109;-72
2021/06/22 05:57:02;;;;;;;5.13;1.48;;;18.90;99.90;;;;;;4994967;28;20098;-71
2021/06/22 05:59:27;;;;;;;5.22;1.15;;;18.90;99.90;;;;;;4993671;28;20074;-71
2021/06/22 06:01:53;;;;;;;2.17;0.95;;;19.00;99.90;;;;;;5008136;28;20141;-71
2021/06/22 06:04:18;;;;;;;2.08;1.10;;;19.00;99.90;;;;;;4996219;28;20726;-71
2021/06/22 06:06:44;;;;;;;3.00;1.42;;;19.10;99.90;;;;;;4991940;28;20514;-72
2021/06/22 06:09:09;;;;;;;3.72;1.23;;;19.10;99.90;;;;;;4992922;28;20535;-72
2021/06/22 06:11:35;;;;;;;3.30;1.30;;;19.20;99.90;;;;;;4993338;28;20098;-71
2021/06/22 06:14:00;;;;;;;3.55;1.58;;;19.20;99.90;;;;;;4993145;28;20074;-71
2021/06/22 06:16:26;;;;;;;4.28;1.60;;;19.10;99.90;;;;;;5004899;28;20538;-71
2021/06/22 06:18:51;;;;;;;3.58;1.25;;;19.20;99.90;;;;;;5000308;28;20075;-71
2021/06/22 06:21:17;;;;;;;3.25;1.10;;;19.30;99.90;;;;;;4992098;28;20535;-71
2021/06/22 06:23:46;;;;;;;3.00;1.35;;;19.20;99.90;;;;;;5006881;28;20170;-72
2021/06/22 06:26:14;;;;;;;2.53;1.30;;;19.20;99.90;;;;;;4995326;28;20075;-71
2021/06/22 06:28:45;;;;;;;2.65;1.38;;;19.30;99.90;;;;;;5006537;28;20526;-72
2021/06/22 06:31:10;;;;;;;8.20;1.80;;;19.20;99.90;;;;;;5008257;28;20086;-71
2021/06/22 06:33:36;;;;;;;3.53;1.50;;;19.30;99.90;;;;;;5006646;28;20112;-71
2021/06/22 06:36:02;;;;;;;3.10;1.40;;;19.30;99.90;;;;;;5008387;28;20170;-71
2021/06/22 06:38:27;;;;;;;3.55;1.08;;;19.50;99.90;;;;;;4993999;28;20173;-71
2021/06/22 06:40:53;;;;;;;3.45;1.38;;;19.60;99.90;;;;;;5005088;28;20074;-70
2021/06/22 06:43:18;;;;;;;3.05;1.15;;;19.60;99.90;;;;;;4992294;28;20083;-70
2021/06/22 06:45:44;;;;;;;2.58;1.42;;;19.60;99.90;;;;;;4994132;28;20141;-71
2021/06/22 06:48:10;;;;;;;1.67;1.00;;;19.60;99.90;;;;;;4994311;28;20113;-70
2021/06/22 06:50:35;;;;;;;3.30;1.20;;;19.50;99.90;;;;;;4994044;28;20085;-71
2021/06/22 06:53:01;;;;;;;3.70;1.10;;;19.50;99.90;;;;;;5005715;28;20078;-71
2021/06/22 06:55:27;;;;;;;4.28;1.38;;;19.60;99.90;;;;;;4994704;28;20075;-71
2021/06/22 06:58:00;;;;;;;5.13;1.85;;;19.60;99.90;;;;;;4995368;28;20489;-71
2021/06/22 07:00:29;;;;;;;4.27;1.43;;;19.80;99.90;;;;;;5003966;28;20097;-71
2021/06/22 07:02:54;;;;;;;2.22;1.10;;;19.70;99.90;;;;;;4992708;28;20078;-70
2021/06/22 07:05:21;;;;;;;3.33;1.13;;;19.70;99.90;;;;;;4995473;28;20169;-71
2021/06/22 07:07:46;;;;;;;3.75;1.40;;;19.70;99.90;;;;;;4991121;28;20563;-71
2021/06/22 07:10:13;;;;;;;5.40;1.63;;;19.80;99.90;;;;;;5000530;28;20090;-71
2021/06/22 07:12:39;;;;;;;2.95;1.75;;;19.80;99.90;;;;;;4990441;28;20145;-71
2021/06/22 07:15:06;;;;;;;4.28;1.13;;;19.80;99.90;;;;;;5008409;28;20551;-72
2021/06/22 07:17:32;;;;;;;2.83;1.25;;;19.90;99.90;;;;;;4997520;28;20094;-71
2021/06/22 07:19:57;;;;;;;2.13;1.10;;;19.90;99.90;;;;;;4992393;28;20157;-71
2021/06/22 07:22:23;;;;;;;4.65;1.40;;;20.00;99.90;;;;;;4992250;28;20445;-71
2021/06/22 07:24:50;;;;;;;4.80;1.40;;;19.90;99.90;;;;;;4996206;28;20086;-71
2021/06/22 07:27:16;;;;;;;4.53;1.30;;;19.90;99.90;;;;;;5005302;28;20101;-71
2021/06/22 07:29:42;;;;;;;2.63;1.10;;;19.90;99.90;;;;;;5004232;28;20082;-71
2021/06/22 07:32:08;;;;;;;1.92;1.00;;;20.10;99.90;;;;;;5004930;28;20127;-71
2021/06/22 07:34:35;;;;;;;2.45;1.08;;;20.10;99.90;;;;;;5001959;28;20121;-71
2021/06/22 07:37:00;;;;;;;5.75;1.63;;;20.30;99.90;;;;;;5004602;28;20098;-71
2021/06/22 07:39:26;;;;;;;5.30;1.45;;;20.30;99.90;;;;;;4990649;28;20586;-70
2021/06/22 07:41:52;;;;;;;3.25;1.00;;;20.20;99.90;;;;;;4998042;28;20264;-71
2021/06/22 07:44:17;;;;;;;4.05;0.90;;;20.30;99.90;;;;;;4992217;28;20137;-71
2021/06/22 07:46:43;;;;;;;4.32;1.15;;;20.40;99.90;;;;;;4994811;28;20098;-70
2021/06/22 07:49:08;;;;;;;2.28;1.33;;;20.40;99.90;;;;;;4999462;28;20172;-71
2021/06/22 07:51:34;;;;;;;1.63;0.82;;;20.30;99.90;;;;;;5003681;28;20100;-71
2021/06/22 07:53:59;;;;;;;3.83;1.00;;;20.40;99.90;;;;;;4991151;28;20157;-71
2021/06/22 07:56:25;;;;;;;7.47;1.45;;;20.40;99.90;;;;;;5003326;28;20092;-71
2021/06/22 07:58:50;;;;;;;4.28;0.93;;;20.40;99.90;;;;;;5008053;28;20149;-71
2021/06/22 08:01:17;;;;;;;5.55;1.38;;;20.50;99.90;;;;;;4991141;28;20148;-70
2021/06/22 08:03:43;;;;;;;2.75;0.95;;;20.50;99.90;;;;;;4992295;28;20079;-72
2021/06/22 08:06:08;;;;;;;1.92;0.93;;;20.60;99.90;;;;;;5004055;28;20083;-71
2021/06/22 08:08:34;;;;;;;4.95;1.02;;;20.70;99.90;;;;;;5005564;28;20126;-71
2021/06/22 08:11:00;;;;;;;1.27;0.70;;;20.70;99.90;;;;;;4990681;28;20150;-71
2021/06/22 08:13:26;;;;;;;2.45;0.95;;;20.80;99.90;;;;;;4989342;28;20133;-70
2021/06/22 08:15:53;;;;;;;2.28;1.10;;;20.80;99.90;;;;;;4997286;28;20162;-71
2021/06/22 08:18:18;;;;;;;4.03;1.00;;;20.70;99.90;;;;;;5002830;28;20095;-70
2021/06/22 08:20:45;;;;;;;2.58;0.82;;;20.80;99.90;;;;;;5004697;28;20067;-71
2021/06/22 08:23:11;;;;;;;3.35;1.10;;;21.00;99.90;;;;;;4993722;28;20609;-70
2021/06/22 08:25:37;;;;;;;5.32;1.20;;;21.00;99.90;;;;;;4992515;28;20071;-71
2021/06/22 08:28:04;;;;;;;3.85;0.82;;;21.00;99.90;;;;;;4988148;28;20086;-70
2021/06/22 08:30:30;;;;;;;1.90;0.70;;;21.00;99.90;;;;;;5007588;28;20133;-71
2021/06/22 08:32:56;;;;;;;6.60;1.55;;;21.00;99.90;;;;;;5008757;28;20089;-70
2021/06/22 08:35:24;;;;;;;2.88;1.13;;;21.10;99.90;;;;;;5008648;28;20074;-71
2021/06/22 08:37:50;;;;;;;3.03;0.90;;;21.10;99.90;;;;;;5009194;28;20082;-71
2021/06/22 08:40:16;;;;;;;3.72;1.05;;;21.30;99.90;;;;;;5008254;28;20078;-71
2021/06/22 08:42:42;;;;;;;3.50;1.25;;;21.40;99.90;;;;;;5009812;28;20580;-71
2021/06/22 08:45:10;;;;;;;3.58;1.00;;;21.40;99.90;;;;;;5001225;28;20106;-71
2021/06/22 08:47:37;;;;;;;5.13;1.48;;;21.60;99.90;;;;;;4993509;28;20094;-71
2021/06/22 08:50:04;;;;;;;2.85;1.20;;;21.50;99.90;;;;;;4989291;28;20086;-71
2021/06/22 08:52:34;;;;;;;4.85;2.15;;;21.60;99.90;;;;;;4996699;28;20155;-71
2021/06/22 08:55:00;;;;;;;5.28;1.05;;;21.60;99.90;;;;;;5005584;28;20081;-71
2021/06/22 08:57:26;;;;;;;2.30;0.90;;;21.80;99.90;;;;;;4990001;28;20458;-71
2021/06/22 08:59:53;;;;;;;4.10;1.20;;;21.80;99.90;;;;;;5004151;28;20083;-71
2021/06/22 09:02:24;;;;;;;2.50;0.90;;;22.00;99.90;;;;;;4995415;28;20075;-70
2021/06/22 09:04:55;;;;;;;2.58;1.25;;;21.80;99.90;;;;;;4990572;28;20090;-70
2021/06/22 09:07:48;;;;;;;6.07;1.55;;;21.80;99.90;;;;;;4987229;28;20820;-70
2021/06/22 09:10:24;;;;;;;2.47;0.80;;;21.70;99.90;;;;;;4994332;28;20077;-70
2021/06/22 09:12:51;;;;;;;5.10;1.15;;;21.60;99.90;;;;;;4989580;28;20094;-71
2021/06/22 09:15:23;;;;;;;3.70;1.35;;;21.70;99.90;;;;;;5004233;28;20093;-71
2021/06/22 09:17:50;;;;;;;2.17;1.10;;;21.80;99.90;;;;;;4998577;28;20094;-70
2021/06/22 09:20:30;;;;;;;4.25;1.30;;;21.80;99.90;;;;;;4993558;28;20497;-70
2021/06/22 09:23:10;;;;;;;3.67;1.10;;;21.80;99.90;;;;;;4990354;28;20079;-71
2021/06/22 09:25:36;;;;;;;4.38;1.60;;;21.90;99.90;;;;;;4988960;28;20085;-71
2021/06/22 09:28:01;;;;;;;2.83;1.10;;;21.90;99.90;;;;;;4997016;28;20094;-71
2021/06/22 09:30:48;;;;;;;5.05;1.65;;;22.00;99.90;;;;;;5005707;28;20086;-71
2021/06/22 09:33:20;;;;;;;1.35;1.05;;;21.90;99.90;;;;;;5000170;28;20078;-71
2021/06/22 09:35:48;;;;;;;3.92;1.98;;;21.90;99.90;;;;;;5001472;28;20573;-72
2021/06/22 09:38:14;;;;;;;2.67;1.25;;;22.20;99.90;;;;;;4999791;28;20233;-72
2021/06/22 09:40:41;;;;;;;5.57;1.80;;;22.20;99.90;;;;;;5001783;28;20080;-71
2021/06/22 09:43:07;;;;;;;5.97;1.23;;;22.30;99.90;;;;;;4994658;28;20567;-71
2021/06/22 09:45:33;;;;;;;2.55;1.45;;;22.50;99.90;;;;;;4992042;28;20086;-71
2021/06/22 09:48:03;;;;;;;4.25;1.63;;;22.80;99.90;;;;;;4996776;28;20110;-70
2021/06/22 09:50:44;;;;;;;4.25;1.27;;;22.70;99.90;;;;;;5002788;28;20199;-72
2021/06/22 09:53:26;;;;;;;4.20;1.20;;;22.60;99.90;;;;;;4993146;28;20615;-72
2021/06/22 09:55:52;;;;;;;3.03;1.30;;;22.50;99.90;;;;;;4992885;28;20087;-72
2021/06/22 09:58:41;;;;;;;4.07;1.60;;;22.40;99.90;;;;;;4992085;28;20866;-72
2021/06/22 10:01:31;;;;;;;2.47;1.30;;;22.60;99.90;;;;;;5002016;28;20082;-71
2021/06/22 10:04:12;;;;;;;3.90;1.20;;;22.40;99.90;;;;;;4992322;28;20085;-72
2021/06/22 10:06:37;;;;;;;3.25;1.67;;;22.60;99.90;;;;;;5002513;28;20086;-71
2021/06/22 10:09:03;;;;;;;4.07;1.15;;;22.60;99.90;;;;;;5005014;28;20480;-72
2021/06/22 10:11:40;;;;;;;4.40;1.70;;;22.70;99.90;;;;;;5009846;28;20658;-71
2021/06/22 10:14:10;;;;;;;2.50;1.63;;;23.00;99.90;;;;;;4988327;28;20087;-71
2021/06/22 10:16:36;;;;;;;3.20;1.13;;;22.80;99.90;;;;;;4995911;28;20078;-71
2021/06/22 10:19:07;;;;;;;2.95;1.50;;;22.80;99.90;;;;;;5002325;28;20185;-72
2021/06/22 10:21:34;;;;;;;3.78;1.10;;;23.00;99.90;;;;;;4990128;28;20082;-71
2021/06/22 10:24:01;;;;;;;4.60;1.20;;;23.10;99.90;;;;;;4988955;28;20074;-72
2021/06/22 10:26:29;;;;;;;2.58;1.58;;;23.10;99.90;;;;;;4993973;28;20148;-72
2021/06/22 10:29:02;;;;;;;2.47;1.20;;;23.20;99.90;;;;;;4988122;28;20083;-71
2021/06/22 10:31:30;;;;;;;3.70;1.42;;;23.20;99.90;;;;;;4998303;28;20114;-71
2021/06/22 10:33:57;;;;;;;2.88;1.02;;;23.20;99.90;;;;;;5001729;28;20082;-71
2021/06/22 10:36:49;;;;;;;2.38;1.02;;;23.10;99.90;;;;;;4993214;28;20086;-71
2021/06/22 10:39:29;;;;;;;3.25;1.02;;;23.30;99.90;;;;;;4992183;28;20079;-71
2021/06/22 10:41:57;;;;;;;3.15;0.98;;;23.30;99.90;;;;;;4991277;28;20070;-72
2021/06/22 10:44:27;;;;;;;3.33;1.42;;;23.20;99.90;;;;;;4993679;28;20149;-74
2021/06/22 10:47:14;;;;;;;2.03;1.00;;;23.40;99.90;;;;;;4994431;28;20094;-72
2021/06/22 10:50:00;;;;;;;5.35;1.70;;;23.40;99.90;;;;;;4992536;28;20082;-71
2021/06/22 10:52:44;;;;;;;3.40;1.10;;;23.50;99.90;;;;;;4999682;28;20090;-71
2021/06/22 10:55:21;;;;;;;2.25;1.00;;;23.50;99.90;;;;;;4992100;28;20574;-71
2021/06/22 11:00:51;;;;;;;3.30;1.20;;;23.50;99.90;;;;;;5005609;28;20104;-70
2021/06/22 11:03:24;;;;;;;1.45;0.77;;;23.60;99.90;;;;;;4990739;28;20404;-71
2021/06/22 11:06:12;;;;;;;3.13;1.10;;;23.70;99.90;;;;;;4991734;28;20075;-72
2021/06/22 11:08:43;;;;;;;3.42;1.08;;;23.70;99.90;;;;;;5005970;28;20089;-71
2021/06/22 11:11:08;;;;;;;2.88;1.13;;;23.70;99.90;;;;;;5006163;28;20478;-71
2021/06/22 11:13:47;;;;;;;3.78;1.27;;;24.00;99.90;;;;;;4990861;28;20079;-71
2021/06/22 11:16:18;;;;;;;3.15;1.00;;;24.10;99.90;;;;;;4990247;28;20128;-72
2021/06/22 11:18:53;;;;;;;4.65;1.40;;;24.00;99.90;;;;;;4994161;28;20494;-72
2021/06/22 11:21:19;;;;;;;3.40;1.27;;;23.60;99.90;;;;;;4992128;28;20611;-71
2021/06/22 11:24:03;;;;;;;3.30;1.45;;;23.70;99.90;;;;;;4995039;28;20087;-71
2021/06/22 11:26:30;;;;;;;2.90;1.40;;;23.70;99.90;;;;;;4995105;28;20101;-71
2021/06/22 11:29:01;;;;;;;1.58;0.73;;;23.80;99.90;;;;;;4991348;28;20454;-71
2021/06/22 11:31:42;;;;;;;3.03;0.93;;;23.80;99.90;;;;;;5005919;28;20094;-71
2021/06/22 11:34:14;;;;;;;3.08;0.90;;;23.80;99.90;;;;;;4997081;28;20074;-71
2021/06/22 11:36:50;;;;;;;1.98;0.95;;;23.70;99.90;;;;;;4993339;28;20071;-71
2021/06/22 11:39:18;;;;;;;1.60;1.10;;;23.70;99.90;;;;;;4996235;28;20073;-71
2021/06/22 11:42:11;;;;;;;3.05;1.00;;;23.80;99.90;;;;;;4993141;28;20082;-71
2021/06/22 11:44:38;;;;;;;3.60;1.05;;;23.80;99.90;;;;;;5005255;28;20403;-70
2021/06/22 11:47:08;;;;;;;2.92;1.38;;;24.00;99.90;;;;;;4999135;28;20106;-71
2021/06/22 11:49:45;;;;;;;2.00;1.00;;;24.00;99.90;;;;;;4994564;28;20112;-73
2021/06/22 11:52:16;;;;;;;3.63;0.88;;;23.90;99.90;;;;;;5006208;28;20101;-71
2021/06/22 11:54:47;;;;;;;1.30;1.13;;;23.80;99.90;;;;;;4998954;28;20547;-71
2021/06/22 11:57:18;;;;;;;2.83;0.88;;;23.80;99.90;;;;;;4992539;28;20177;-73
2021/06/22 11:59:44;;;;;;;1.75;1.15;;;23.90;99.90;;;;;;5011315;28;20219;-71
2021/06/22 12:02:09;;;;;;;2.58;1.08;;;24.20;99.90;;;;;;4995181;28;20169;-71
2021/06/22 12:04:35;;;;;;;2.13;1.15;;;24.20;99.90;;;;;;5010135;28;20077;-71
2021/06/22 12:07:01;;;;;;;2.58;1.20;;;24.20;99.90;;;;;;4989772;28;20533;-72
2021/06/22 12:09:27;;;;;;;2.08;1.13;;;24.00;99.90;;;;;;4990576;28;20086;-71
2021/06/22 12:11:55;;;;;;;3.70;1.48;;;24.20;99.90;;;;;;4990773;28;20086;-72
2021/06/22 12:14:22;;;;;;;3.65;1.00;;;24.20;99.90;;;;;;4990630;28;20162;-72
2021/06/22 12:16:49;;;;;;;1.88;1.20;;;24.20;99.90;;;;;;5015067;23;20118;-75
2021/06/22 12:19:20;;;;;;;2.13;1.10;;;24.50;99.90;;;;;;5003817;28;20465;-73
2021/06/22 12:21:50;;;;;;;1.90;1.17;;;24.40;99.90;;;;;;5007350;28;20086;-73
2021/06/22 12:24:18;;;;;;;3.15;1.20;;;24.30;99.90;;;;;;5009829;28;20089;-73
2021/06/22 12:26:48;;;;;;;3.67;1.30;;;24.30;99.90;;;;;;5019931;28;20446;-76
2021/06/22 12:29:26;;;;;;;1.67;1.48;;;24.40;99.90;;;;;;5022292;28;20100;-73
2021/06/22 12:32:08;;;;;;;3.15;1.23;;;24.20;99.90;;;;;;5012754;28;20122;-76
2021/06/22 12:34:39;;;;;;;2.22;1.63;;;24.30;99.90;;;;;;5012677;28;20066;-77
2021/06/22 12:37:18;;;;;;;2.33;1.48;;;24.00;99.90;;;;;;5017012;28;20113;-73
2021/06/22 12:39:44;;;;;;;1.38;1.27;;;23.90;99.90;;;;;;5027934;28;20077;-76
2021/06/22 12:42:11;;;;;;;1.88;1.13;;;23.90;99.90;;;;;;5013793;28;20082;-73
2021/06/22 12:44:38;;;;;;;2.10;1.00;;;24.10;99.90;;;;;;5010871;28;20085;-73
2021/06/22 12:47:09;;;;;;;2.88;0.90;;;24.00;99.90;;;;;;5017827;28;20104;-73
2021/06/22 12:49:37;;;;;;;2.03;1.17;;;24.20;99.90;;;;;;5016022;28;20081;-73
2021/06/22 12:52:05;;;;;;;3.88;1.40;;;24.20;99.90;;;;;;5014135;28;20090;-71
2021/06/22 12:54:36;;;;;;;2.25;1.45;;;24.40;99.90;;;;;;5015222;28;20082;-74